createdAt,value
2023-02-23T00:01:51.379Z,11.40
2023-02-23T00:04:18.744Z,11.30
2023-02-23T00:06:45.690Z,11.30
2023-02-23T00:09:22.758Z,11.30
2023-02-23T00:11:54.669Z,11.30
2023-02-23T00:14:24.589Z,11.30
2023-02-23T00:16:51.252Z,11.30
2023-02-23T00:19:17.972Z,11.30
2023-02-23T00:21:45.702Z,11.30
2023-02-23T00:24:15.319Z,11.20
2023-02-23T00:26:42.945Z,11.20
2023-02-23T00:29:17.219Z,11.40
2023-02-23T00:31:47.889Z,11.20
2023-02-23T00:34:16.671Z,11.20
2023-02-23T00:36:43.365Z,11.20
2023-02-23T00:39:21.311Z,11.20
2023-02-23T00:41:49.360Z,11.20
2023-02-23T00:44:16.476Z,11.20
2023-02-23T00:46:43.854Z,11.20
2023-02-23T00:49:12.328Z,11.20
2023-02-23T00:51:39.358Z,11.20
2023-02-23T00:54:06.706Z,11.20
2023-02-23T00:56:33.566Z,13.20
2023-02-23T00:59:00.420Z,11.20
2023-02-23T01:01:27.878Z,11.20
2023-02-23T01:03:54.837Z,11.10
2023-02-23T01:06:21.947Z,11.20
2023-02-23T01:08:50.718Z,11.20
2023-02-23T01:11:22.084Z,11.10
2023-02-23T01:13:51.463Z,11.10
2023-02-23T01:16:21.144Z,11.10
2023-02-23T01:18:48.875Z,11.10
2023-02-23T01:21:36.022Z,11.40
2023-02-23T01:24:03.139Z,11.10
2023-02-23T01:26:34.033Z,11.10
2023-02-23T01:29:03.610Z,11.10
2023-02-23T01:31:31.365Z,11.10
2023-02-23T01:34:00.425Z,11.10
2023-02-23T01:36:34.202Z,11.10
2023-02-23T01:39:00.945Z,11.10
2023-02-23T01:41:32.833Z,11.10
2023-02-23T01:44:04.012Z,11.00
2023-02-23T01:46:43.302Z,11.10
2023-02-23T01:49:17.362Z,11.10
2023-02-23T01:51:48.587Z,11.10
2023-02-23T01:54:20.072Z,11.10
2023-02-23T01:56:51.083Z,11.00
2023-02-23T01:59:18.102Z,11.00
2023-02-23T02:01:45.650Z,11.00
2023-02-23T02:04:16.770Z,11.00
2023-02-23T02:06:45.855Z,11.00
2023-02-23T02:09:18.299Z,11.00
2023-02-23T02:11:46.581Z,10.10
2023-02-23T02:14:17.404Z,11.00
2023-02-23T02:17:11.364Z,11.00
2023-02-23T02:20:06.112Z,11.00
2023-02-23T02:22:56.476Z,11.00
2023-02-23T02:25:44.528Z,10.90
2023-02-23T02:28:41.111Z,11.00
2023-02-23T02:31:38.422Z,11.00
2023-02-23T02:34:45.480Z,10.90
2023-02-23T02:37:39.616Z,10.90
2023-02-23T02:40:18.209Z,10.90
2023-02-23T02:42:51.329Z,10.90
2023-02-23T02:45:26.329Z,10.90
2023-02-23T02:48:11.191Z,10.90
2023-02-23T02:50:43.278Z,10.90
2023-02-23T02:53:11.885Z,10.90
2023-02-23T02:55:43.410Z,10.90
2023-02-23T02:58:11.697Z,10.90
2023-02-23T03:01:00.651Z,10.90
2023-02-23T03:03:59.161Z,10.80
2023-02-23T03:06:54.077Z,10.90
2023-02-23T03:09:52.822Z,10.90
2023-02-23T03:12:53.138Z,10.90
2023-02-23T03:15:44.612Z,10.90
2023-02-23T03:19:06.516Z,10.80
2023-02-23T03:22:36.828Z,10.80
2023-02-23T03:25:33.508Z,10.80
2023-02-23T03:28:37.564Z,10.80
2023-02-23T03:31:34.084Z,10.80
2023-02-23T03:34:46.000Z,10.80
2023-02-23T03:37:42.924Z,10.80
2023-02-23T03:40:51.073Z,10.80
2023-02-23T03:43:40.753Z,10.80
2023-02-23T03:46:28.710Z,10.80
2023-02-23T03:49:15.091Z,10.70
2023-02-23T03:52:02.099Z,10.70
2023-02-23T03:54:53.618Z,10.70
2023-02-23T03:57:41.080Z,10.70
2023-02-23T04:00:32.074Z,10.80
2023-02-23T04:03:18.979Z,10.70
2023-02-23T04:06:04.767Z,10.70
2023-02-23T04:08:54.433Z,10.70
2023-02-23T04:11:49.876Z,10.70
2023-02-23T04:14:26.311Z,10.70
2023-02-23T04:16:53.193Z,10.70
2023-02-23T04:19:19.905Z,10.70
2023-02-23T04:21:47.672Z,10.70
2023-02-23T04:24:14.302Z,10.70
2023-02-23T04:26:40.968Z,10.70
2023-02-23T04:29:07.616Z,10.60
2023-02-23T04:31:34.284Z,10.60
2023-02-23T04:34:00.989Z,10.60
2023-02-23T04:36:28.474Z,10.60
2023-02-23T04:38:55.162Z,10.70
2023-02-23T04:41:21.821Z,10.60
2023-02-23T04:43:48.604Z,10.70
2023-02-23T04:46:15.318Z,10.60
2023-02-23T04:48:42.089Z,10.60
2023-02-23T04:51:08.762Z,10.60
2023-02-23T04:53:35.432Z,10.60
2023-02-23T04:56:02.112Z,10.60
2023-02-23T04:58:28.792Z,10.50
2023-02-23T05:00:55.448Z,10.60
2023-02-23T05:03:22.105Z,10.60
2023-02-23T05:05:48.781Z,10.60
2023-02-23T05:08:15.478Z,10.60
2023-02-23T05:10:42.132Z,10.50
2023-02-23T05:13:08.980Z,10.60
2023-02-23T05:15:35.716Z,10.50
2023-02-23T05:18:02.354Z,10.60
2023-02-23T05:20:29.143Z,10.50
2023-02-23T05:22:55.842Z,10.50
2023-02-23T05:25:22.727Z,10.50
2023-02-23T05:27:49.498Z,10.50
2023-02-23T05:30:16.286Z,10.50
2023-02-23T05:32:42.942Z,10.50
2023-02-23T05:35:09.755Z,10.40
2023-02-23T05:37:36.420Z,10.40
2023-02-23T05:40:04.310Z,10.40
2023-02-23T05:42:30.977Z,10.50
2023-02-23T05:44:57.642Z,10.40
2023-02-23T05:47:24.289Z,10.40
2023-02-23T05:49:50.908Z,10.50
2023-02-23T05:52:18.129Z,10.50
2023-02-23T05:54:46.629Z,10.40
2023-02-23T05:57:13.347Z,10.40
2023-02-23T05:59:40.227Z,10.40
2023-02-23T06:02:06.896Z,10.40
2023-02-23T06:04:34.212Z,10.40
2023-02-23T06:07:00.868Z,10.40
2023-02-23T06:09:27.586Z,10.40
2023-02-23T06:11:54.322Z,10.40
2023-02-23T06:14:21.414Z,10.30
2023-02-23T06:16:48.817Z,10.40
2023-02-23T06:19:15.762Z,10.40
2023-02-23T06:21:42.435Z,10.30
2023-02-23T06:24:09.621Z,10.30
2023-02-23T06:26:36.388Z,10.30
2023-02-23T06:29:03.092Z,10.30
2023-02-23T06:31:30.666Z,10.30
2023-02-23T06:33:57.470Z,10.30
2023-02-23T06:36:24.238Z,10.30
2023-02-23T06:38:51.034Z,10.30
2023-02-23T06:41:18.473Z,10.30
2023-02-23T06:43:45.543Z,10.30
2023-02-23T06:46:12.432Z,10.30
2023-02-23T06:48:39.357Z,10.20
2023-02-23T06:51:06.238Z,10.30
2023-02-23T06:53:33.649Z,10.30
2023-02-23T06:56:00.406Z,10.20
2023-02-23T06:58:28.283Z,10.30
2023-02-23T07:00:56.828Z,10.20
2023-02-23T07:03:24.248Z,10.20
2023-02-23T07:05:51.838Z,10.20
2023-02-23T07:08:18.686Z,10.20
2023-02-23T07:10:46.146Z,10.20
2023-02-23T07:13:16.457Z,10.20
2023-02-23T07:15:43.370Z,10.20
2023-02-23T07:18:10.057Z,10.20
2023-02-23T07:20:36.998Z,10.20
2023-02-23T07:23:03.921Z,10.20
2023-02-23T07:25:30.942Z,10.20
2023-02-23T07:27:59.032Z,10.20
2023-02-23T07:30:26.102Z,10.20
2023-02-23T07:32:53.272Z,10.30
2023-02-23T07:35:20.519Z,10.20
2023-02-23T07:37:47.182Z,10.20
2023-02-23T07:40:14.171Z,10.20
2023-02-23T07:42:40.847Z,10.20
2023-02-23T07:45:08.407Z,10.20
2023-02-23T07:47:35.283Z,10.20
2023-02-23T07:50:03.462Z,10.20
2023-02-23T07:52:30.161Z,10.20
2023-02-23T07:54:57.755Z,10.20
2023-02-23T07:57:25.174Z,10.20
2023-02-23T07:59:51.991Z,10.20
2023-02-23T08:02:18.903Z,10.20
2023-02-23T08:04:45.714Z,10.20
2023-02-23T08:07:12.456Z,10.20
2023-02-23T08:09:40.853Z,10.20
2023-02-23T08:12:07.623Z,10.20
2023-02-23T08:14:34.336Z,10.20
2023-02-23T08:17:01.593Z,10.20
2023-02-23T08:19:28.613Z,10.30
2023-02-23T08:21:56.375Z,10.30
2023-02-23T08:24:23.353Z,10.30
2023-02-23T08:26:50.499Z,10.30
2023-02-23T08:29:17.525Z,10.30
2023-02-23T08:31:44.687Z,10.30
2023-02-23T08:34:11.535Z,10.30
2023-02-23T08:36:38.841Z,10.30
2023-02-23T08:39:07.412Z,10.30
2023-02-23T08:41:34.791Z,10.40
2023-02-23T08:44:01.429Z,10.40
2023-02-23T08:46:28.240Z,10.40
2023-02-23T08:48:56.277Z,10.40
2023-02-23T08:51:23.460Z,10.40
2023-02-23T08:53:50.233Z,10.40
2023-02-23T08:56:16.966Z,10.50
2023-02-23T08:58:44.039Z,10.50
2023-02-23T09:01:19.822Z,10.50
2023-02-23T09:03:46.873Z,10.50
2023-02-23T09:06:17.231Z,10.80
2023-02-23T09:08:43.924Z,10.60
2023-02-23T09:11:10.641Z,10.60
2023-02-23T09:13:37.327Z,10.60
2023-02-23T09:16:04.266Z,10.60
2023-02-23T09:18:32.634Z,10.70
2023-02-23T09:20:59.828Z,10.70
2023-02-23T09:23:29.682Z,10.70
2023-02-23T09:25:56.378Z,10.80
2023-02-23T09:28:22.993Z,10.80
2023-02-23T09:30:49.755Z,10.80
2023-02-23T09:33:17.289Z,10.80
2023-02-23T09:35:43.956Z,10.90
2023-02-23T09:38:10.696Z,10.90
2023-02-23T09:40:53.217Z,10.90
2023-02-23T09:43:36.678Z,10.90
2023-02-23T09:46:06.483Z,11.00
2023-02-23T09:48:34.654Z,11.00
2023-02-23T09:51:01.771Z,11.10
2023-02-23T09:53:44.556Z,11.10
2023-02-23T09:56:52.955Z,11.10
2023-02-23T09:59:21.528Z,11.10
2023-02-23T10:01:48.334Z,11.20
2023-02-23T10:04:23.936Z,11.20
2023-02-23T10:07:09.668Z,11.30
2023-02-23T10:09:43.004Z,11.30
2023-02-23T10:12:10.971Z,11.30
2023-02-23T10:15:08.849Z,11.40
2023-02-23T10:17:46.417Z,11.40
2023-02-23T10:20:27.787Z,11.50
2023-02-23T10:22:58.384Z,11.50
2023-02-23T10:25:27.500Z,11.50
2023-02-23T10:27:56.728Z,11.60
2023-02-23T10:30:26.800Z,11.60
2023-02-23T10:33:17.138Z,11.70
2023-02-23T10:35:44.974Z,11.70
2023-02-23T10:38:19.418Z,11.80
2023-02-23T10:40:58.832Z,11.80
2023-02-23T10:43:25.813Z,11.90
2023-02-23T10:45:53.555Z,11.90
2023-02-23T10:48:24.546Z,12.00
2023-02-23T10:50:55.791Z,12.00
2023-02-23T10:53:28.199Z,12.10
2023-02-23T10:56:15.133Z,12.10
2023-02-23T10:58:47.517Z,12.20
2023-02-23T11:01:16.876Z,12.30
2023-02-23T11:04:05.511Z,12.30
2023-02-23T11:06:43.076Z,12.40
2023-02-23T11:09:45.871Z,12.40
2023-02-23T11:12:23.329Z,12.50
2023-02-23T11:14:52.315Z,12.60
2023-02-23T11:17:36.455Z,12.60
2023-02-23T11:20:17.855Z,12.70
2023-02-23T11:22:45.023Z,12.70
2023-02-23T11:25:32.862Z,12.80
2023-02-23T11:27:59.826Z,12.80
2023-02-23T11:30:37.501Z,12.90
2023-02-23T11:33:11.869Z,13.00
2023-02-23T11:35:38.856Z,13.00
2023-02-23T11:38:16.891Z,13.10
2023-02-23T11:41:04.857Z,13.20
2023-02-23T11:43:31.601Z,13.20
2023-02-23T11:46:02.307Z,13.30
2023-02-23T11:48:32.790Z,13.40
2023-02-23T11:51:00.405Z,13.40
2023-02-23T11:53:31.649Z,13.40
2023-02-23T11:58:39.255Z,13.60
2023-02-23T12:01:13.527Z,13.70
2023-02-23T12:04:01.105Z,13.70
2023-02-23T12:06:34.843Z,13.80
2023-02-23T12:09:14.820Z,13.90
2023-02-23T12:11:46.139Z,14.00
2023-02-23T12:14:23.815Z,14.00
2023-02-23T12:16:59.763Z,14.10
2023-02-23T12:19:31.324Z,14.20
2023-02-23T12:22:20.417Z,14.20
2023-02-23T12:28:44.265Z,14.40
2023-02-23T12:31:28.451Z,14.50
2023-02-23T12:34:02.987Z,14.50
2023-02-23T12:36:43.670Z,14.60
2023-02-23T12:39:33.484Z,14.70
2023-02-23T12:42:16.773Z,14.70
2023-02-23T12:44:46.884Z,14.90
2023-02-23T12:47:45.705Z,14.90
2023-02-23T12:50:24.464Z,14.90
2023-02-23T12:53:37.542Z,15.00
2023-02-23T12:56:04.273Z,15.10
2023-02-23T12:59:00.219Z,15.10
2023-02-23T13:01:32.047Z,15.20
2023-02-23T13:04:11.239Z,15.20
2023-02-23T13:06:44.433Z,15.30
2023-02-23T13:09:32.660Z,15.10
2023-02-23T13:12:33.237Z,15.30
2023-02-23T13:15:43.078Z,15.40
2023-02-23T13:18:35.806Z,15.40
2023-02-23T13:21:28.240Z,15.40
2023-02-23T13:24:07.266Z,15.40
2023-02-23T13:26:46.842Z,15.50
2023-02-23T13:29:45.770Z,15.50
2023-02-23T13:32:18.490Z,15.50
2023-02-23T13:35:03.066Z,15.50
2023-02-23T13:38:07.184Z,15.50
2023-02-23T13:40:45.385Z,15.50
2023-02-23T13:43:43.330Z,15.50
2023-02-23T13:46:16.589Z,15.50
2023-02-23T13:48:56.293Z,15.50
2023-02-23T13:51:30.471Z,15.50
2023-02-23T13:54:16.231Z,15.60
2023-02-23T13:56:52.613Z,15.60
2023-02-23T13:59:36.625Z,15.60
2023-02-23T14:02:23.890Z,15.60
2023-02-23T14:05:27.688Z,15.60
2023-02-23T14:08:05.364Z,15.50
2023-02-23T14:10:45.331Z,15.60
2023-02-23T14:13:15.698Z,15.60
2023-02-23T14:15:54.226Z,15.60
2023-02-23T14:18:20.926Z,15.60
2023-02-23T14:21:14.893Z,15.60
2023-02-23T14:24:05.061Z,15.60
2023-02-23T14:26:31.758Z,15.60
2023-02-23T14:29:19.988Z,15.60
2023-02-23T14:31:56.933Z,15.60
2023-02-23T14:34:42.035Z,15.60
2023-02-23T14:37:25.273Z,15.60
2023-02-23T14:39:54.788Z,15.60
2023-02-23T14:42:27.223Z,15.60
2023-02-23T14:44:54.975Z,15.60
2023-02-23T14:47:27.017Z,15.60
2023-02-23T14:49:59.395Z,15.70
2023-02-23T14:52:41.556Z,15.70
2023-02-23T14:55:20.991Z,15.70
2023-02-23T14:57:47.889Z,15.70
2023-02-23T15:00:15.048Z,15.70
2023-02-23T15:02:58.337Z,15.70
2023-02-23T15:05:33.230Z,15.70
2023-02-23T15:08:04.114Z,15.70
2023-02-23T15:10:43.450Z,15.70
2023-02-23T15:13:32.301Z,15.70
2023-02-23T15:16:03.937Z,15.70
2023-02-23T15:19:27.137Z,15.70
2023-02-23T15:21:56.256Z,15.80
2023-02-23T15:24:27.658Z,15.80
2023-02-23T15:26:57.952Z,15.80
2023-02-23T15:29:32.454Z,15.80
2023-02-23T15:32:17.201Z,15.80
2023-02-23T15:37:34.293Z,15.80
2023-02-23T15:40:04.826Z,15.80
2023-02-23T15:42:37.925Z,15.80
2023-02-23T15:45:48.794Z,15.70
2023-02-23T15:48:21.092Z,15.70
2023-02-23T15:50:53.639Z,15.70
2023-02-23T15:53:24.990Z,15.70
2023-02-23T15:55:56.389Z,15.70
2023-02-23T15:58:44.514Z,15.70
2023-02-23T16:01:26.687Z,15.70
2023-02-23T16:04:12.557Z,15.70
2023-02-23T16:06:51.702Z,15.70
2023-02-23T16:09:22.038Z,15.70
2023-02-23T16:11:55.606Z,15.70
2023-02-23T16:14:24.378Z,15.70
2023-02-23T16:17:09.958Z,15.60
2023-02-23T16:19:41.614Z,15.60
2023-02-23T16:22:19.368Z,15.60
2023-02-23T16:24:53.137Z,15.60
2023-02-23T16:27:20.250Z,15.60
2023-02-23T16:29:47.108Z,15.50
2023-02-23T16:32:19.805Z,15.50
2023-02-23T16:35:01.059Z,15.50
2023-02-23T16:37:28.208Z,15.50
2023-02-23T16:39:58.573Z,15.40
2023-02-23T16:42:32.048Z,15.40
2023-02-23T16:44:59.810Z,15.40
2023-02-23T16:47:39.013Z,15.40
2023-02-23T16:50:21.384Z,15.30
2023-02-23T16:52:52.149Z,15.30
2023-02-23T16:55:28.198Z,15.30
2023-02-23T16:57:58.741Z,15.30
2023-02-23T17:00:32.568Z,15.30
2023-02-23T17:03:06.297Z,15.20
2023-02-23T17:05:33.645Z,15.50
2023-02-23T17:08:01.114Z,15.20
2023-02-23T17:10:31.970Z,15.20
2023-02-23T17:13:06.081Z,15.20
2023-02-23T17:15:38.553Z,15.20
2023-02-23T17:18:05.912Z,15.20
2023-02-23T17:20:33.003Z,15.20
2023-02-23T17:23:01.220Z,15.20
2023-02-23T17:25:28.285Z,15.20
2023-02-23T17:27:56.350Z,15.10
2023-02-23T17:30:24.199Z,15.10
2023-02-23T17:32:52.308Z,15.10
2023-02-23T17:35:19.710Z,15.10
2023-02-23T17:37:46.907Z,15.10
2023-02-23T17:40:17.609Z,15.10
2023-02-23T17:42:44.976Z,15.10
2023-02-23T17:45:11.858Z,15.10
2023-02-23T17:47:39.884Z,15.10
2023-02-23T17:50:08.250Z,15.00
2023-02-23T17:52:35.645Z,15.00
2023-02-23T17:55:03.410Z,15.00
2023-02-23T17:57:31.174Z,15.00
2023-02-23T17:59:58.133Z,15.00
2023-02-23T18:02:25.161Z,14.90
2023-02-23T18:04:52.510Z,14.90
2023-02-23T18:07:21.136Z,14.90
2023-02-23T18:09:50.796Z,14.90
2023-02-23T18:12:19.162Z,14.90
2023-02-23T18:14:46.414Z,14.80
2023-02-23T18:17:14.458Z,14.80
2023-02-23T18:19:42.590Z,14.80
2023-02-23T18:22:09.973Z,14.70
2023-02-23T18:24:41.030Z,14.70
2023-02-23T18:27:13.081Z,14.70
2023-02-23T18:29:39.956Z,14.70
2023-02-23T18:32:07.914Z,14.70
2023-02-23T18:34:35.036Z,14.60
2023-02-23T18:37:03.429Z,14.60
2023-02-23T18:39:31.738Z,14.50
2023-02-23T18:42:00.203Z,14.60
2023-02-23T18:44:27.497Z,14.60
2023-02-23T18:46:54.998Z,14.60
2023-02-23T18:49:23.700Z,14.50
2023-02-23T18:51:50.722Z,14.60
2023-02-23T18:54:18.685Z,14.50
2023-02-23T18:56:47.445Z,14.50
2023-02-23T18:59:14.850Z,14.40
2023-02-23T19:01:45.254Z,14.50
2023-02-23T19:04:12.589Z,14.50
2023-02-23T19:06:42.822Z,14.40
2023-02-23T19:09:12.580Z,14.40
2023-02-23T19:11:39.725Z,14.40
2023-02-23T19:14:13.336Z,14.40
2023-02-23T19:16:41.218Z,14.40
2023-02-23T19:19:08.861Z,14.40
2023-02-23T19:21:36.226Z,14.30
2023-02-23T19:24:04.091Z,14.30
2023-02-23T19:26:32.211Z,14.30
2023-02-23T19:28:59.123Z,14.30
2023-02-23T19:31:28.495Z,14.30
2023-02-23T19:33:57.303Z,14.30
2023-02-23T19:36:29.555Z,14.20
2023-02-23T19:39:05.633Z,14.20
2023-02-23T19:41:33.554Z,14.20
2023-02-23T19:44:00.365Z,14.20
2023-02-23T19:46:27.660Z,14.10
2023-02-23T19:48:54.789Z,14.10
2023-02-23T19:51:22.354Z,14.10
2023-02-23T19:53:49.360Z,14.10
2023-02-23T19:56:16.951Z,14.00
2023-02-23T19:58:46.522Z,14.10
2023-02-23T20:01:16.852Z,14.00
2023-02-23T20:03:45.115Z,14.00
2023-02-23T20:06:14.410Z,14.00
2023-02-23T20:08:42.231Z,14.00
2023-02-23T20:11:09.031Z,13.90
2023-02-23T20:13:36.123Z,13.90
2023-02-23T20:16:10.697Z,13.90
2023-02-23T20:18:41.271Z,13.90
2023-02-23T20:21:19.513Z,13.90
2023-02-23T20:23:47.237Z,13.80
2023-02-23T20:26:17.101Z,13.90
2023-02-23T20:28:44.772Z,13.80
2023-02-23T20:31:26.513Z,13.80
2023-02-23T20:33:55.970Z,13.80
2023-02-23T20:36:23.731Z,13.80
2023-02-23T20:38:50.672Z,13.70
2023-02-23T20:41:17.652Z,13.70
2023-02-23T20:43:44.900Z,13.70
2023-02-23T20:46:16.566Z,13.70
2023-02-23T20:48:43.673Z,13.70
2023-02-23T20:51:14.340Z,13.60
2023-02-23T20:53:45.307Z,13.60
2023-02-23T20:56:13.788Z,13.60
2023-02-23T20:58:40.598Z,13.60
2023-02-23T21:01:18.388Z,13.60
2023-02-23T21:03:45.281Z,13.60
2023-02-23T21:06:12.166Z,13.50
2023-02-23T21:08:42.285Z,13.50
2023-02-23T21:11:09.012Z,13.50
2023-02-23T21:13:36.473Z,13.50
2023-02-23T21:16:03.519Z,13.50
2023-02-23T21:18:31.403Z,13.50
2023-02-23T21:21:08.978Z,13.50
2023-02-23T21:23:43.294Z,13.40
2023-02-23T21:26:13.570Z,13.40
2023-02-23T21:28:42.221Z,13.40
2023-02-23T21:31:10.807Z,13.40
2023-02-23T21:33:38.355Z,13.40
2023-02-23T21:36:05.513Z,13.40
2023-02-23T21:38:34.708Z,13.40
2023-02-23T21:41:01.344Z,13.40
2023-02-23T21:43:28.042Z,13.40
2023-02-23T21:45:55.004Z,13.40
2023-02-23T21:48:21.743Z,13.30
2023-02-23T21:50:48.467Z,13.30
2023-02-23T21:53:15.178Z,13.30
2023-02-23T21:55:41.902Z,13.30
2023-02-23T21:58:08.598Z,13.30
2023-02-23T22:00:39.300Z,13.20
2023-02-23T22:03:06.244Z,13.20
2023-02-23T22:05:35.328Z,13.20
2023-02-23T22:08:01.982Z,13.30
2023-02-23T22:10:28.832Z,13.20
2023-02-23T22:12:56.908Z,13.20
2023-02-23T22:15:27.576Z,13.20
2023-02-23T22:17:55.169Z,13.20
2023-02-23T22:20:22.302Z,13.20
2023-02-23T22:22:57.246Z,13.20
2023-02-23T22:25:25.976Z,13.20
2023-02-23T22:27:52.681Z,13.20
2023-02-23T22:30:22.379Z,13.20
2023-02-23T22:32:49.321Z,13.10
2023-02-23T22:35:16.133Z,13.10
2023-02-23T22:37:42.831Z,13.10
2023-02-23T22:40:16.603Z,13.10
2023-02-23T22:42:49.816Z,13.10
2023-02-23T22:45:17.597Z,13.10
2023-02-23T22:47:44.486Z,13.00
2023-02-23T22:50:13.951Z,13.00
2023-02-23T22:52:40.769Z,13.00
2023-02-23T22:55:08.015Z,13.00
2023-02-23T22:57:34.783Z,12.90
2023-02-23T23:00:10.820Z,13.00
2023-02-23T23:02:37.865Z,13.00
2023-02-23T23:05:04.882Z,12.90
2023-02-23T23:07:31.619Z,12.90
2023-02-23T23:09:58.594Z,12.90
2023-02-23T23:12:27.847Z,12.90
2023-02-23T23:14:55.898Z,12.90
2023-02-23T23:17:22.606Z,12.90
2023-02-23T23:19:49.769Z,13.00
2023-02-23T23:22:17.402Z,13.00
2023-02-23T23:24:45.940Z,12.90
2023-02-23T23:27:20.409Z,12.90
2023-02-23T23:29:50.489Z,12.90
2023-02-23T23:32:18.720Z,12.90
2023-02-23T23:34:48.289Z,12.80
2023-02-23T23:37:17.171Z,12.90
2023-02-23T23:39:44.736Z,12.90
2023-02-23T23:42:11.833Z,12.80
2023-02-23T23:44:38.746Z,13.80
2023-02-23T23:47:05.764Z,12.90
2023-02-23T23:49:41.144Z,12.80
2023-02-23T23:52:17.930Z,12.80
2023-02-23T23:54:44.920Z,12.80
2023-02-23T23:59:46.329Z,12.80
